Terminal Aerodrome Forecast
Issued by NWS

Home | Current Version | Previous Version | Text Only | Print | Product List | Glossary On
Versions: 1 2 3 4 5 6 7 8 9 10 11 12 13 14 15 16 17 18 19 20 21
000
FTUS41 KPBZ 300500
TAFMGW
TAF
KMGW 300536Z 3006/3106 29010G17KT 4SM -SHSN OVC015
      TEMPO 3006/3008 2SM -SHRASN BKN008 OVC015
     FM301600 31011G18KT P6SM OVC015
     FM302100 31010KT P6SM OVC020=

USA.gov is the U.S. government's official web portal to all federal, state and local government web resources and services.